Aérodrome :
LOGIN :

S'inscrire | Disclaimer

   EN    FR    IT 

 










Légende :    VFR   VFR Marginal   IFR   IFR Intensif   IFR Très Intensif
Visi : 
Plafond : 
>= 8 km
>= 3000ft
5 à 8 km
1000 à 3000 ft
1500m à 5 km
500 à 1000 ft
800 à 1500m
200 à 500 ft
< 800m
< 200 ft
Symboles :   Orages  Brouillard  Fortes neiges  Fortes précipitations  Vent > 20 kt
SIGMETs :   Divers  Orages  Givrage  Turbulence  Onde Orograph.  Cendres Volcan.







- Altitude de l'aérodrome : 181 ft


ESIB - Satenas AB

DERNIER METAR :
  • 220620Z AUTO 19004KT 0500 0350// R01/0600V1800U R19/0500V0750N FG OVC002/// 03/03 Q1017

METARs EXPIRÉS :
  • 220550Z AUTO 17004KT 0200 R01/0450N R19/0375N FG VV002 03/03 Q1017
  • 220520Z AUTO VRB02KT 0150 R01/0325N R19/0300V0500N FG VV002 03/03 Q1016
  • 220450Z AUTO VRB02KT 0150 0100// R01/0275N R19/0300V0400N FG VV001 02/02 Q1016
  • 220420Z AUTO 21003KT 0100 R01/0250N R19/0400N FG VV001 02/02 Q1016
  • 220350Z AUTO VRB02KT 0100 0050// R01/0225N R19/0300N FG VV001 01/01 Q1016

Prévision TAF périmée.
Pas de NOTAMs connus pour ce terrain.



MET'MAP, la Météo Aéronautique d'un coup d'oeil ! - Copyright ORBIFLY Décembre 2007 - Disclaimer

ORBIFLY MET'MAP TEAM :

Programmation & Développement : Alexandra Zaïnal
Conception & Développement : Baudouin d'Aumeries
Co-Programmation & Développement : Marc-Olivier Méhu
Soutien technique & logistique : Manuel Goepfert

Contact : metmap@orbifly.com




SOURCES & CREDITS :

   NOAA